createdAt,value
2023-05-21T00:00:12.827Z,10.80
2023-05-21T00:02:40.955Z,10.60
2023-05-21T00:05:14.653Z,11.10
2023-05-21T00:07:42.324Z,10.33
2023-05-21T00:10:10.046Z,10.87
2023-05-21T00:12:37.611Z,10.53
2023-05-21T00:15:06.771Z,10.60
2023-05-21T00:17:37.226Z,10.57
2023-05-21T00:20:09.013Z,10.77
2023-05-21T00:22:36.649Z,10.87
2023-05-21T00:25:04.168Z,10.63
2023-05-21T00:27:31.330Z,10.93
2023-05-21T00:29:58.167Z,10.33
2023-05-21T00:32:26.772Z,10.77
2023-05-21T00:34:54.716Z,10.60
2023-05-21T00:37:24.644Z,10.50
2023-05-21T00:39:51.517Z,9.83
2023-05-21T00:42:18.731Z,10.27
2023-05-21T00:44:46.320Z,10.27
2023-05-21T00:47:14.596Z,10.73
2023-05-21T00:49:42.817Z,10.90
2023-05-21T00:52:10.273Z,10.43
2023-05-21T00:54:37.174Z,10.33
2023-05-21T00:57:05.393Z,10.57
2023-05-21T00:59:33.324Z,10.27
2023-05-21T01:02:04.966Z,10.83
2023-05-21T01:04:32.085Z,10.30
2023-05-21T01:07:00.862Z,10.60
2023-05-21T01:09:28.480Z,9.97
2023-05-21T01:11:56.563Z,10.13
2023-05-21T01:14:24.913Z,10.50
2023-05-21T01:16:52.982Z,10.43
2023-05-21T01:19:22.227Z,11.17
2023-05-21T01:21:51.327Z,10.37
2023-05-21T01:24:19.770Z,10.63
2023-05-21T01:26:47.023Z,10.67
2023-05-21T01:29:14.509Z,10.83
2023-05-21T01:31:52.601Z,10.50
2023-05-21T01:34:23.877Z,10.17
2023-05-21T01:36:58.586Z,11.20
2023-05-21T01:39:32.406Z,10.70
2023-05-21T01:42:03.080Z,10.13
2023-05-21T01:44:31.623Z,11.20
2023-05-21T01:46:59.817Z,10.67
2023-05-21T01:49:27.135Z,10.97
2023-05-21T01:51:54.510Z,10.33
2023-05-21T01:54:21.991Z,10.27
2023-05-21T01:56:51.082Z,10.33
2023-05-21T01:59:18.380Z,11.07
2023-05-21T02:01:45.612Z,10.27
2023-05-21T02:04:12.484Z,10.30
2023-05-21T02:06:39.921Z,10.40
2023-05-21T02:09:06.772Z,10.17
2023-05-21T02:11:35.000Z,11.17
2023-05-21T02:14:03.803Z,10.03
2023-05-21T02:16:31.100Z,10.70
2023-05-21T02:18:58.585Z,10.30
2023-05-21T02:21:25.449Z,10.57
2023-05-21T02:23:52.662Z,10.47
2023-05-21T02:26:19.531Z,10.80
2023-05-21T02:28:46.666Z,10.77
2023-05-21T02:31:14.984Z,10.80
2023-05-21T02:33:42.770Z,10.10
2023-05-21T02:36:13.375Z,10.07
2023-05-21T02:38:44.015Z,10.33
2023-05-21T02:41:11.231Z,10.10
2023-05-21T02:43:38.146Z,9.93
2023-05-21T02:46:06.091Z,10.20
2023-05-21T02:48:34.758Z,9.93
2023-05-21T02:51:01.613Z,9.70
2023-05-21T02:53:28.805Z,10.07
2023-05-21T02:55:56.411Z,10.27
2023-05-21T02:58:25.517Z,10.10
2023-05-21T03:00:53.607Z,10.23
2023-05-21T03:03:21.120Z,9.43
2023-05-21T03:05:49.559Z,9.87
2023-05-21T03:08:17.284Z,10.30
2023-05-21T03:10:44.153Z,10.23
2023-05-21T03:13:11.458Z,10.87
2023-05-21T03:15:39.664Z,9.90
2023-05-21T03:18:06.812Z,9.77
2023-05-21T03:20:33.669Z,10.67
2023-05-21T03:23:04.616Z,10.70
2023-05-21T03:25:31.608Z,10.80
2023-05-21T03:27:58.880Z,10.60
2023-05-21T03:30:25.827Z,10.03
2023-05-21T03:32:52.982Z,9.67
2023-05-21T03:35:19.837Z,9.83
2023-05-21T03:37:47.069Z,10.17
2023-05-21T03:40:15.690Z,9.90
2023-05-21T03:42:42.836Z,10.50
2023-05-21T03:45:10.428Z,9.13
2023-05-21T03:47:37.667Z,10.17
2023-05-21T03:50:05.780Z,9.80
2023-05-21T03:52:33.029Z,10.00
2023-05-21T03:54:59.978Z,9.73
2023-05-21T03:57:28.767Z,9.37
2023-05-21T03:59:55.984Z,9.70
2023-05-21T04:02:23.580Z,10.13
2023-05-21T04:04:51.682Z,9.63
2023-05-21T04:07:19.538Z,9.60
2023-05-21T04:09:46.855Z,10.03
2023-05-21T04:12:14.161Z,9.03
2023-05-21T04:14:42.348Z,9.70
2023-05-21T04:17:10.044Z,9.77
2023-05-21T04:19:36.998Z,9.57
2023-05-21T04:22:04.513Z,10.70
2023-05-21T04:24:31.350Z,10.10
2023-05-21T04:27:01.748Z,9.87
2023-05-21T04:29:29.891Z,10.50
2023-05-21T04:31:58.532Z,10.10
2023-05-21T04:34:25.873Z,10.07
2023-05-21T04:36:54.247Z,10.23
2023-05-21T04:39:21.151Z,10.37
2023-05-21T04:41:51.149Z,10.57
2023-05-21T04:44:18.345Z,10.53
2023-05-21T04:46:46.070Z,11.00
2023-05-21T04:49:15.287Z,10.57
2023-05-21T04:51:42.174Z,11.57
2023-05-21T04:54:09.005Z,10.83
2023-05-21T04:56:36.354Z,10.67
2023-05-21T04:59:05.511Z,11.47
2023-05-21T05:01:35.481Z,11.03
2023-05-21T05:04:02.458Z,10.80
2023-05-21T05:06:31.458Z,11.60
2023-05-21T05:08:58.284Z,11.00
2023-05-21T05:11:25.516Z,10.80
2023-05-21T05:13:52.577Z,11.93
2023-05-21T05:16:25.581Z,10.73
2023-05-21T05:18:53.131Z,11.77
2023-05-21T05:21:23.134Z,11.63
2023-05-21T05:23:51.360Z,11.53
2023-05-21T05:26:18.720Z,11.87
2023-05-21T05:28:46.295Z,12.00
2023-05-21T05:31:13.375Z,11.30
2023-05-21T05:33:41.439Z,11.97
2023-05-21T05:36:08.782Z,12.07
2023-05-21T05:38:36.040Z,12.63
2023-05-21T05:41:04.758Z,12.63
2023-05-21T05:43:31.640Z,12.53
2023-05-21T05:45:58.902Z,12.47
2023-05-21T05:48:25.876Z,12.80
2023-05-21T05:50:54.798Z,12.30
2023-05-21T05:53:21.771Z,12.50
2023-05-21T05:55:48.953Z,12.90
2023-05-21T05:58:17.625Z,13.17
2023-05-21T06:00:44.968Z,12.87
2023-05-21T06:03:12.176Z,13.40
2023-05-21T06:05:39.771Z,12.83
2023-05-21T06:08:07.017Z,14.13
2023-05-21T06:10:34.211Z,13.90
2023-05-21T06:13:01.088Z,14.10
2023-05-21T06:15:30.187Z,14.23
2023-05-21T06:17:57.033Z,14.17
2023-05-21T06:20:24.255Z,13.80
2023-05-21T06:22:51.062Z,14.80
2023-05-21T06:25:18.409Z,14.70
2023-05-21T06:27:45.419Z,15.57
2023-05-21T06:30:12.828Z,13.70
2023-05-21T06:32:41.201Z,14.73
2023-05-21T06:35:09.423Z,15.43
2023-05-21T06:37:36.304Z,15.00
2023-05-21T06:40:04.202Z,15.53
2023-05-21T06:42:31.044Z,15.43
2023-05-21T06:44:57.963Z,14.97
2023-05-21T06:47:24.933Z,16.00
2023-05-21T06:49:53.609Z,15.57
2023-05-21T06:52:20.463Z,15.17
2023-05-21T06:54:47.642Z,15.40
2023-05-21T06:57:16.269Z,15.82
2023-05-21T06:59:43.475Z,14.68
2023-05-21T07:02:10.450Z,14.20
2023-05-21T07:04:37.826Z,15.73
2023-05-21T07:07:06.104Z,15.00
2023-05-21T07:09:33.084Z,15.00
2023-05-21T07:12:00.067Z,14.70
2023-05-21T07:14:27.312Z,16.42
2023-05-21T07:16:54.224Z,15.35
2023-05-21T07:19:21.944Z,15.38
2023-05-21T07:21:49.533Z,16.38
2023-05-21T07:24:18.094Z,16.27
2023-05-21T07:26:44.957Z,16.40
2023-05-21T07:29:12.167Z,17.70
2023-05-21T07:31:39.245Z,15.77
2023-05-21T07:34:06.691Z,16.00
2023-05-21T07:36:34.074Z,17.30
2023-05-21T07:39:01.419Z,17.75
2023-05-21T07:41:29.614Z,16.90
2023-05-21T07:43:56.967Z,17.73
2023-05-21T07:46:23.844Z,17.50
2023-05-21T07:48:52.155Z,17.70
2023-05-21T07:51:19.281Z,18.92
2023-05-21T07:53:46.443Z,18.85
2023-05-21T07:56:13.305Z,18.08
2023-05-21T07:58:44.153Z,17.63
2023-05-21T08:01:11.249Z,17.55
2023-05-21T08:03:38.718Z,17.52
2023-05-21T08:06:05.739Z,19.65
2023-05-21T08:08:33.070Z,17.90
2023-05-21T08:11:00.030Z,18.92
2023-05-21T08:13:27.201Z,17.67
2023-05-21T08:15:55.478Z,17.13
2023-05-21T08:18:24.147Z,17.48
2023-05-21T08:20:51.674Z,17.40
2023-05-21T08:23:18.660Z,17.70
2023-05-21T08:25:45.693Z,18.23
2023-05-21T08:28:12.531Z,19.63
2023-05-21T08:30:39.428Z,18.55
2023-05-21T08:33:08.025Z,17.55
2023-05-21T08:35:35.143Z,18.17
2023-05-21T08:38:02.831Z,18.77
2023-05-21T08:40:30.867Z,18.10
2023-05-21T08:42:58.660Z,18.38
2023-05-21T08:45:26.896Z,18.45
2023-05-21T08:47:57.514Z,18.08
2023-05-21T08:50:27.738Z,18.17
2023-05-21T08:52:55.833Z,19.25
2023-05-21T08:55:23.594Z,19.02
2023-05-21T08:57:53.741Z,18.55
2023-05-21T09:00:21.233Z,17.92
2023-05-21T09:02:48.239Z,18.38
2023-05-21T09:05:16.459Z,19.30
2023-05-21T09:07:55.787Z,19.02
2023-05-21T09:10:27.107Z,20.17
2023-05-21T09:12:54.374Z,19.55
2023-05-21T09:15:21.626Z,19.02
2023-05-21T09:17:49.299Z,18.27
2023-05-21T09:20:16.742Z,18.90
2023-05-21T09:22:46.985Z,19.02
2023-05-21T09:25:15.715Z,18.83
2023-05-21T09:27:43.146Z,22.83
2023-05-21T09:30:11.683Z,18.63
2023-05-21T09:32:39.113Z,19.40
2023-05-21T09:35:11.526Z,18.73
2023-05-21T09:37:39.201Z,18.23
2023-05-21T09:40:13.505Z,17.08
2023-05-21T09:42:40.897Z,18.85
2023-05-21T09:45:09.726Z,17.42
2023-05-21T09:47:41.717Z,17.92
2023-05-21T09:50:10.092Z,17.70
2023-05-21T09:52:38.295Z,20.48
2023-05-21T09:55:07.011Z,18.83
2023-05-21T09:57:41.399Z,18.48
2023-05-21T10:00:10.781Z,18.90
2023-05-21T10:02:42.474Z,18.65
2023-05-21T10:05:12.260Z,17.45
2023-05-21T10:07:42.074Z,17.33
2023-05-21T10:10:12.910Z,16.33
2023-05-21T10:12:43.884Z,16.88
2023-05-21T10:15:14.852Z,17.20
2023-05-21T10:17:42.725Z,17.10
2023-05-21T10:20:12.579Z,17.27
2023-05-21T10:22:40.773Z,18.15
2023-05-21T10:25:08.538Z,16.80
2023-05-21T10:27:35.771Z,17.77
2023-05-21T10:30:05.763Z,16.85
2023-05-21T10:32:33.863Z,16.63
2023-05-21T10:35:02.380Z,16.98
2023-05-21T10:37:29.947Z,15.55
2023-05-21T10:39:57.371Z,16.80
2023-05-21T10:42:57.490Z,15.75
2023-05-21T10:45:36.535Z,16.35
2023-05-21T10:48:15.218Z,15.15
2023-05-21T10:51:01.678Z,15.32
2023-05-21T10:53:39.110Z,13.85
2023-05-21T10:56:16.485Z,14.05
2023-05-21T10:59:04.886Z,14.00
2023-05-21T11:01:37.396Z,14.10
2023-05-21T11:04:06.560Z,15.00
2023-05-21T11:06:33.536Z,14.95
2023-05-21T11:09:11.472Z,15.57
2023-05-21T11:11:43.282Z,14.38
2023-05-21T11:14:31.770Z,15.48
2023-05-21T11:17:01.233Z,14.18
2023-05-21T11:19:39.526Z,14.35
2023-05-21T11:22:20.919Z,14.00
2023-05-21T11:24:50.544Z,14.27
2023-05-21T11:27:32.443Z,14.20
2023-05-21T11:30:00.025Z,13.75
2023-05-21T11:32:29.826Z,13.85
2023-05-21T11:35:01.433Z,13.02
2023-05-21T11:37:35.104Z,13.00
2023-05-21T11:40:25.694Z,13.55
2023-05-21T11:42:54.502Z,12.73
2023-05-21T11:45:23.082Z,12.25
2023-05-21T11:47:53.836Z,12.85
2023-05-21T11:50:21.168Z,13.05
2023-05-21T11:52:49.888Z,12.32
2023-05-21T11:55:22.057Z,12.02
2023-05-21T11:57:54.018Z,12.00
2023-05-21T12:00:21.578Z,14.30
2023-05-21T12:02:53.018Z,11.50
2023-05-21T12:05:20.715Z,12.57
2023-05-21T12:07:50.425Z,11.43
2023-05-21T12:10:20.619Z,13.18
2023-05-21T12:12:54.916Z,13.10
2023-05-21T12:15:24.669Z,11.65
2023-05-21T12:17:54.580Z,11.20
2023-05-21T12:20:26.265Z,11.18
2023-05-21T12:22:53.452Z,11.18
2023-05-21T12:25:22.830Z,11.18
2023-05-21T12:27:58.107Z,10.30
2023-05-21T12:30:25.911Z,10.55
2023-05-21T12:32:57.875Z,10.43
2023-05-21T12:35:25.101Z,10.23
2023-05-21T12:37:52.937Z,9.70
2023-05-21T12:40:20.272Z,9.07
2023-05-21T12:42:47.199Z,9.10
2023-05-21T12:45:15.112Z,9.65
2023-05-21T12:47:47.918Z,9.13
2023-05-21T12:50:21.431Z,9.70
2023-05-21T12:52:48.601Z,9.57
2023-05-21T12:55:16.702Z,9.15
2023-05-21T12:57:43.967Z,9.55
2023-05-21T13:00:12.082Z,8.43
2023-05-21T13:02:40.478Z,9.02
2023-05-21T13:05:09.733Z,9.55
2023-05-21T13:07:39.393Z,8.52
2023-05-21T13:10:07.772Z,8.95
2023-05-21T13:12:35.325Z,9.20
2023-05-21T13:15:04.360Z,9.35
2023-05-21T13:17:31.477Z,9.55
2023-05-21T13:20:07.596Z,8.98
2023-05-21T13:22:35.765Z,8.90
2023-05-21T13:25:04.550Z,10.02
2023-05-21T13:27:31.449Z,9.07
2023-05-21T13:29:58.450Z,9.90
2023-05-21T13:32:25.907Z,9.68
2023-05-21T13:34:52.772Z,9.80
2023-05-21T13:37:20.594Z,9.65
2023-05-21T13:39:47.902Z,8.98
2023-05-21T13:42:16.464Z,9.73
2023-05-21T13:44:43.852Z,9.43
2023-05-21T13:47:12.050Z,9.95
2023-05-21T13:49:39.057Z,9.70
2023-05-21T13:52:06.896Z,10.20
2023-05-21T13:54:33.852Z,9.20
2023-05-21T13:57:01.192Z,9.32
2023-05-21T13:59:31.988Z,8.82
2023-05-21T14:02:02.308Z,9.48
2023-05-21T14:04:29.323Z,9.98
2023-05-21T14:06:56.697Z,9.38
2023-05-21T14:09:27.328Z,9.60
2023-05-21T14:11:55.089Z,9.43
2023-05-21T14:14:22.957Z,9.32
2023-05-21T14:16:51.626Z,9.85
2023-05-21T14:19:19.186Z,10.35
2023-05-21T14:21:46.126Z,9.82
2023-05-21T14:24:13.110Z,10.05
2023-05-21T14:26:41.378Z,10.00
2023-05-21T14:29:08.857Z,9.95
2023-05-21T14:31:36.096Z,9.55
2023-05-21T14:34:05.216Z,9.75
2023-05-21T14:36:32.525Z,9.48
2023-05-21T14:38:59.774Z,9.70
2023-05-21T14:41:27.567Z,10.00
2023-05-21T14:43:55.511Z,10.52
2023-05-21T14:46:22.647Z,9.77
2023-05-21T14:48:49.969Z,9.73
2023-05-21T14:51:19.197Z,10.02
2023-05-21T14:53:46.087Z,10.38
2023-05-21T14:56:13.026Z,10.35
2023-05-21T14:58:40.209Z,10.52
2023-05-21T15:01:07.985Z,10.15
2023-05-21T15:03:35.346Z,10.15
2023-05-21T15:06:05.149Z,10.10
2023-05-21T15:08:33.493Z,10.20
2023-05-21T15:11:00.700Z,9.88
2023-05-21T15:13:38.280Z,10.57
2023-05-21T15:16:05.760Z,9.98
2023-05-21T15:18:33.196Z,9.55
2023-05-21T15:21:00.620Z,8.70
2023-05-21T15:23:27.652Z,9.38
2023-05-21T15:25:55.247Z,9.05
2023-05-21T15:28:23.437Z,9.50
2023-05-21T15:30:51.696Z,9.38
2023-05-21T15:33:19.008Z,8.38
2023-05-21T15:35:46.470Z,8.68
2023-05-21T15:38:13.459Z,9.20
2023-05-21T15:40:44.142Z,9.35
2023-05-21T15:43:11.411Z,8.40
2023-05-21T15:45:39.140Z,9.15
2023-05-21T15:48:08.267Z,8.80
2023-05-21T15:50:38.195Z,8.25
2023-05-21T15:53:05.239Z,7.55
2023-05-21T15:55:33.224Z,8.25
2023-05-21T15:58:02.213Z,8.55
2023-05-21T16:00:29.529Z,8.32
2023-05-21T16:02:56.523Z,8.10
2023-05-21T16:05:25.550Z,8.05
2023-05-21T16:07:52.776Z,8.77
2023-05-21T16:10:19.727Z,8.27
2023-05-21T16:12:46.956Z,8.73
2023-05-21T16:15:14.073Z,9.00
2023-05-21T16:17:44.297Z,8.50
2023-05-21T16:20:13.001Z,9.10
2023-05-21T16:22:42.091Z,9.13
2023-05-21T16:25:09.942Z,9.00
2023-05-21T16:27:37.080Z,9.40
2023-05-21T16:30:04.600Z,8.90
2023-05-21T16:32:31.949Z,8.82
2023-05-21T16:34:58.965Z,9.50
2023-05-21T16:37:26.831Z,9.45
2023-05-21T16:39:55.016Z,9.68
2023-05-21T16:42:22.488Z,9.75
2023-05-21T16:44:49.342Z,10.05
2023-05-21T16:47:16.604Z,10.18
2023-05-21T16:49:43.505Z,10.07
2023-05-21T16:52:10.879Z,10.35
2023-05-21T16:54:37.723Z,9.93
2023-05-21T16:57:06.744Z,10.38
2023-05-21T16:59:33.691Z,9.73
2023-05-21T17:02:01.277Z,9.90
2023-05-21T17:04:28.938Z,10.00
2023-05-21T17:06:56.165Z,9.80
2023-05-21T17:09:23.035Z,10.50
2023-05-21T17:11:50.465Z,10.38
2023-05-21T17:14:32.606Z,10.23
2023-05-21T17:17:01.098Z,10.50
2023-05-21T17:19:31.204Z,9.75
2023-05-21T17:21:58.583Z,9.38
2023-05-21T17:24:25.859Z,9.90
2023-05-21T17:26:53.647Z,10.38
2023-05-21T17:29:21.986Z,10.27
2023-05-21T17:31:49.205Z,9.90
2023-05-21T17:34:16.701Z,10.68
2023-05-21T17:36:44.110Z,9.90
2023-05-21T17:39:10.978Z,9.82
2023-05-21T17:41:37.944Z,10.65
2023-05-21T17:44:05.374Z,10.40
2023-05-21T17:46:34.015Z,9.77
2023-05-21T17:49:01.028Z,9.32
2023-05-21T17:51:28.297Z,10.18
2023-05-21T17:53:56.319Z,10.45
2023-05-21T17:56:23.346Z,10.27
2023-05-21T17:58:50.750Z,9.85
2023-05-21T18:01:18.321Z,10.70
2023-05-21T18:03:46.715Z,9.63
2023-05-21T18:06:13.981Z,9.73
2023-05-21T18:08:40.920Z,9.82
2023-05-21T18:11:09.285Z,13.57
2023-05-21T18:13:36.160Z,11.10
2023-05-21T18:16:03.021Z,9.75
2023-05-21T18:18:29.936Z,11.68
2023-05-21T18:20:58.249Z,9.93
2023-05-21T18:23:27.372Z,9.77
2023-05-21T18:25:55.707Z,10.20
2023-05-21T18:28:22.799Z,9.50
2023-05-21T18:30:49.725Z,9.13
2023-05-21T18:33:16.806Z,9.73
2023-05-21T18:35:44.559Z,10.13
2023-05-21T18:38:12.991Z,9.77
2023-05-21T18:40:39.886Z,9.25
2023-05-21T18:43:06.747Z,9.32
2023-05-21T18:45:33.811Z,9.65
2023-05-21T18:48:00.907Z,9.55
2023-05-21T18:50:27.945Z,9.90
2023-05-21T18:52:57.613Z,9.45
2023-05-21T18:55:26.326Z,9.48
2023-05-21T18:57:54.267Z,10.23
2023-05-21T19:00:21.792Z,10.07
2023-05-21T19:02:48.804Z,9.63
2023-05-21T19:05:16.283Z,9.63
2023-05-21T19:07:43.198Z,9.93
2023-05-21T19:10:11.606Z,9.95
2023-05-21T19:12:41.803Z,9.50
2023-05-21T19:15:09.891Z,10.10
2023-05-21T19:17:38.994Z,9.90
2023-05-21T19:20:07.751Z,10.15
2023-05-21T19:22:36.879Z,9.85
2023-05-21T19:25:04.405Z,10.30
2023-05-21T19:27:31.389Z,10.13
2023-05-21T19:29:59.930Z,9.80
2023-05-21T19:32:26.899Z,9.80
2023-05-21T19:34:54.104Z,9.82
2023-05-21T19:37:21.186Z,9.77
2023-05-21T19:39:50.025Z,10.07
2023-05-21T19:42:17.686Z,9.75
2023-05-21T19:44:44.820Z,10.20
2023-05-21T19:47:13.258Z,10.63
2023-05-21T19:49:40.462Z,9.73
2023-05-21T19:52:07.370Z,10.48
2023-05-21T19:54:34.310Z,10.40
2023-05-21T19:57:01.153Z,10.32
2023-05-21T19:59:28.275Z,10.52
2023-05-21T20:01:55.456Z,12.02
2023-05-21T20:04:23.695Z,10.50
2023-05-21T20:06:51.973Z,10.10
2023-05-21T20:09:18.800Z,10.60
2023-05-21T20:11:45.790Z,10.38
2023-05-21T20:14:13.360Z,10.43
2023-05-21T20:16:42.250Z,10.70
2023-05-21T20:19:10.706Z,10.50
2023-05-21T20:21:39.057Z,10.70
2023-05-21T20:24:06.901Z,11.68
2023-05-21T20:26:36.816Z,11.48
2023-05-21T20:29:03.636Z,11.68
2023-05-21T20:31:30.570Z,11.65
2023-05-21T20:33:58.704Z,11.95
2023-05-21T20:36:25.858Z,11.77
2023-05-21T20:38:54.103Z,10.43
2023-05-21T20:41:21.752Z,10.90
2023-05-21T20:43:48.593Z,11.00
2023-05-21T20:46:17.494Z,11.70
2023-05-21T20:48:44.519Z,10.90
2023-05-21T20:51:11.494Z,11.38
2023-05-21T20:53:38.378Z,10.82
2023-05-21T20:56:08.283Z,10.90
2023-05-21T20:58:35.483Z,10.60
2023-05-21T21:01:03.040Z,11.40
2023-05-21T21:03:33.724Z,11.07
2023-05-21T21:06:01.462Z,10.73
2023-05-21T21:08:28.352Z,10.90
2023-05-21T21:10:55.591Z,10.00
2023-05-21T21:13:23.823Z,9.50
2023-05-21T21:15:50.811Z,10.43
2023-05-21T21:18:17.886Z,9.93
2023-05-21T21:20:49.766Z,10.20
2023-05-21T21:23:16.911Z,10.45
2023-05-21T21:25:44.259Z,10.02
2023-05-21T21:28:11.126Z,10.25
2023-05-21T21:30:40.827Z,10.40
2023-05-21T21:33:08.817Z,9.63
2023-05-21T21:35:35.946Z,9.20
2023-05-21T21:38:04.803Z,9.07
2023-05-21T21:40:31.678Z,9.55
2023-05-21T21:42:59.182Z,10.00
2023-05-21T21:45:26.049Z,9.52
2023-05-21T21:47:54.807Z,10.07
2023-05-21T21:50:21.754Z,10.20
2023-05-21T21:52:49.271Z,11.20
2023-05-21T21:55:16.171Z,10.13
2023-05-21T21:57:43.321Z,10.05
2023-05-21T22:00:20.858Z,10.18
2023-05-21T22:02:48.067Z,10.25
2023-05-21T22:05:16.334Z,10.00
2023-05-21T22:07:46.806Z,9.80
2023-05-21T22:10:14.650Z,9.25
2023-05-21T22:12:42.189Z,9.80
2023-05-21T22:15:18.056Z,10.57
2023-05-21T22:17:45.532Z,10.25
2023-05-21T22:20:12.564Z,9.80
2023-05-21T22:22:41.273Z,10.15
2023-05-21T22:25:08.621Z,10.10
2023-05-21T22:27:36.889Z,10.35
2023-05-21T22:30:04.559Z,9.88
2023-05-21T22:32:31.701Z,9.85
2023-05-21T22:34:58.562Z,10.13
2023-05-21T22:37:26.514Z,10.20
2023-05-21T22:39:54.737Z,9.25
2023-05-21T22:42:21.985Z,9.80
2023-05-21T22:44:48.835Z,10.20
2023-05-21T22:47:16.537Z,9.77
2023-05-21T22:49:43.405Z,9.68
2023-05-21T22:52:11.020Z,9.43
2023-05-21T22:54:37.932Z,9.85
2023-05-21T22:57:06.436Z,10.38
2023-05-21T22:59:33.839Z,9.60
2023-05-21T23:02:01.231Z,10.52
2023-05-21T23:04:43.389Z,10.05
2023-05-21T23:07:11.747Z,9.73
2023-05-21T23:09:38.648Z,10.90
2023-05-21T23:12:07.716Z,10.93
2023-05-21T23:14:34.609Z,10.77
2023-05-21T23:17:02.516Z,10.60
2023-05-21T23:19:29.755Z,11.18
2023-05-21T23:21:57.030Z,10.57
2023-05-21T23:24:24.252Z,10.15
2023-05-21T23:26:53.340Z,10.95
2023-05-21T23:29:21.476Z,10.80
2023-05-21T23:31:48.399Z,10.95
2023-05-21T23:34:15.475Z,11.20
2023-05-21T23:36:42.638Z,10.88
2023-05-21T23:39:09.598Z,10.55
2023-05-21T23:41:37.338Z,10.95
2023-05-21T23:44:04.724Z,11.00
2023-05-21T23:46:32.908Z,11.20
2023-05-21T23:49:00.136Z,11.05
2023-05-21T23:51:27.520Z,10.32
2023-05-21T23:53:54.693Z,10.70
2023-05-21T23:56:21.768Z,10.50
2023-05-21T23:58:49.119Z,10.65
